createdAt,value
2018-09-13T00:00:00.240Z,75.70
2018-09-13T00:02:28.817Z,75.50
2018-09-13T00:04:57.340Z,75.90
2018-09-13T00:07:25.866Z,76.30
2018-09-13T00:09:54.464Z,76.50
2018-09-13T00:12:22.989Z,76.60
2018-09-13T00:14:51.548Z,76.60
2018-09-13T00:17:20.078Z,77.00
2018-09-13T00:19:48.633Z,77.80
2018-09-13T00:22:17.788Z,77.80
2018-09-13T00:24:46.309Z,77.30
2018-09-13T00:27:14.848Z,78.20
2018-09-13T00:29:43.415Z,77.90
2018-09-13T00:32:11.914Z,77.70
2018-09-13T00:34:40.425Z,77.60
2018-09-13T00:37:08.982Z,77.40
2018-09-13T00:39:37.511Z,77.70
2018-09-13T00:42:06.056Z,77.60
2018-09-13T00:44:34.572Z,77.90
2018-09-13T00:47:03.161Z,77.90
2018-09-13T00:49:31.892Z,77.80
2018-09-13T00:52:00.388Z,77.90
2018-09-13T00:54:28.900Z,78.30
2018-09-13T00:56:57.604Z,78.00
2018-09-13T00:59:26.486Z,78.60
2018-09-13T01:01:55.020Z,79.60
2018-09-13T01:04:23.558Z,80.10
2018-09-13T01:06:52.085Z,79.80
2018-09-13T01:09:20.945Z,79.50
2018-09-13T01:11:49.472Z,79.60
2018-09-13T01:14:18.038Z,79.20
2018-09-13T01:16:46.590Z,79.30
2018-09-13T01:19:16.196Z,79.10
2018-09-13T01:21:44.807Z,78.80
2018-09-13T01:24:13.319Z,79.20
2018-09-13T01:26:42.255Z,79.40
2018-09-13T01:29:10.800Z,79.70
2018-09-13T01:31:39.589Z,79.70
2018-09-13T01:34:08.098Z,80.10
2018-09-13T01:36:36.642Z,80.60
2018-09-13T01:39:07.738Z,80.80
2018-09-13T01:41:36.560Z,80.70
2018-09-13T01:44:05.144Z,80.50
2018-09-13T01:46:33.689Z,80.50
2018-09-13T01:49:02.190Z,80.70
2018-09-13T01:51:31.044Z,81.50
2018-09-13T01:54:00.143Z,81.40
2018-09-13T01:56:28.647Z,81.60
2018-09-13T01:58:57.196Z,81.50
2018-09-13T02:01:25.752Z,81.70
2018-09-13T02:03:54.276Z,81.40
2018-09-13T02:06:22.777Z,81.10
2018-09-13T02:08:51.537Z,81.40
2018-09-13T02:11:20.092Z,81.80
2018-09-13T02:13:48.614Z,81.80
2018-09-13T02:16:17.170Z,82.40
2018-09-13T02:18:45.821Z,82.20
2018-09-13T02:21:14.401Z,82.00
2018-09-13T02:23:43.300Z,81.80
2018-09-13T02:26:11.856Z,81.80
2018-09-13T02:28:40.733Z,81.50
2018-09-13T02:31:09.265Z,81.30
2018-09-13T02:33:37.777Z,81.30
2018-09-13T02:36:06.359Z,81.10
2018-09-13T02:38:34.907Z,80.90
2018-09-13T02:41:03.516Z,81.00
2018-09-13T02:43:32.047Z,81.10
2018-09-13T02:46:00.565Z,81.20
2018-09-13T02:48:29.146Z,81.90
2018-09-13T02:50:57.688Z,82.90
2018-09-13T02:53:26.195Z,82.90
2018-09-13T02:55:54.732Z,83.00
2018-09-13T02:58:23.258Z,83.00
2018-09-13T03:00:51.784Z,82.90
2018-09-13T03:03:20.388Z,83.00
2018-09-13T03:05:48.924Z,83.70
2018-09-13T03:08:17.548Z,84.70
2018-09-13T03:10:46.270Z,85.40
2018-09-13T03:13:14.780Z,85.10
2018-09-13T03:15:43.289Z,84.80
2018-09-13T03:18:11.815Z,84.90
2018-09-13T03:20:40.390Z,85.30
2018-09-13T03:23:08.929Z,85.30
2018-09-13T03:25:37.432Z,85.40
2018-09-13T03:28:06.028Z,86.10
2018-09-13T03:30:34.600Z,86.80
2018-09-13T03:33:03.168Z,86.90
2018-09-13T03:35:31.804Z,86.90
2018-09-13T03:38:00.307Z,86.90
2018-09-13T03:40:28.837Z,87.30
2018-09-13T03:42:57.403Z,87.90
2018-09-13T03:45:26.084Z,87.90
2018-09-13T03:47:54.607Z,88.10
2018-09-13T03:50:23.128Z,87.90
2018-09-13T03:52:51.673Z,88.20
2018-09-13T03:55:20.240Z,88.10
2018-09-13T03:57:48.787Z,88.00
2018-09-13T04:00:17.293Z,88.10
2018-09-13T04:02:45.840Z,88.00
2018-09-13T04:05:14.560Z,88.00
2018-09-13T04:07:43.095Z,87.80
2018-09-13T04:10:11.632Z,87.80
2018-09-13T04:12:40.164Z,88.20
2018-09-13T04:15:08.799Z,88.10
2018-09-13T04:17:37.487Z,88.50
2018-09-13T04:20:06.047Z,88.70
2018-09-13T04:22:34.628Z,88.90
2018-09-13T04:25:03.170Z,88.60
2018-09-13T04:27:31.731Z,89.60
2018-09-13T04:30:00.256Z,89.20
2018-09-13T04:32:28.827Z,89.50
2018-09-13T04:34:57.372Z,89.60
2018-09-13T04:37:26.264Z,89.80
2018-09-13T04:39:54.784Z,89.30
2018-09-13T04:42:23.286Z,90.00
2018-09-13T04:44:51.831Z,90.10
2018-09-13T04:47:20.339Z,90.00
2018-09-13T04:49:49.613Z,90.00
2018-09-13T04:52:18.209Z,89.90
2018-09-13T04:54:46.732Z,89.80
2018-09-13T04:57:15.567Z,89.90
2018-09-13T04:59:44.138Z,89.80
2018-09-13T05:02:12.667Z,90.00
2018-09-13T05:04:41.188Z,90.00
2018-09-13T05:07:09.722Z,90.10
2018-09-13T05:09:38.257Z,90.00
2018-09-13T05:12:06.785Z,89.90
2018-09-13T05:14:35.316Z,89.90
2018-09-13T05:17:04.140Z,89.70
2018-09-13T05:19:32.639Z,89.80
2018-09-13T05:22:01.149Z,89.60
2018-09-13T05:24:29.888Z,89.30
2018-09-13T05:26:58.380Z,89.70
2018-09-13T05:29:26.931Z,89.40
2018-09-13T05:31:55.492Z,89.20
2018-09-13T05:34:24.058Z,89.00
2018-09-13T05:36:52.731Z,88.70
2018-09-13T05:39:21.284Z,88.50
2018-09-13T05:41:49.801Z,88.30
2018-09-13T05:44:18.347Z,88.20
2018-09-13T05:46:47.246Z,88.10
2018-09-13T05:49:15.756Z,88.10
2018-09-13T05:51:44.263Z,88.10
2018-09-13T05:54:12.800Z,88.30
2018-09-13T05:56:41.297Z,88.10
2018-09-13T05:59:09.815Z,88.10
2018-09-13T06:01:38.632Z,88.00
2018-09-13T06:04:07.151Z,87.80
2018-09-13T06:06:35.663Z,88.00
2018-09-13T06:09:05.342Z,87.90
2018-09-13T06:11:33.854Z,88.00
2018-09-13T06:14:02.409Z,87.50
2018-09-13T06:16:30.975Z,87.30
2018-09-13T06:18:59.487Z,87.20
2018-09-13T06:21:28.024Z,87.10
2018-09-13T06:23:56.584Z,86.90
2018-09-13T06:26:25.227Z,86.90
2018-09-13T06:28:53.801Z,86.90
2018-09-13T06:31:22.351Z,86.70
2018-09-13T06:33:50.900Z,86.50
2018-09-13T06:36:19.471Z,86.00
2018-09-13T06:38:48.022Z,85.30
2018-09-13T06:41:16.543Z,85.00
2018-09-13T06:43:45.059Z,85.30
2018-09-13T06:46:13.610Z,84.30
2018-09-13T06:48:42.515Z,83.90
2018-09-13T06:51:11.017Z,84.10
2018-09-13T06:53:39.526Z,83.50
2018-09-13T06:56:08.089Z,82.70
2018-09-13T06:58:36.877Z,81.70
2018-09-13T07:01:05.463Z,81.10
2018-09-13T07:03:34.014Z,81.00
2018-09-13T07:06:02.643Z,81.40
2018-09-13T07:08:31.160Z,81.10
2018-09-13T07:10:59.733Z,80.50
2018-09-13T07:13:28.296Z,80.40
2018-09-13T07:15:56.846Z,80.30
2018-09-13T07:18:25.376Z,79.90
2018-09-13T07:20:53.912Z,80.10
2018-09-13T07:23:22.417Z,79.20
2018-09-13T07:25:50.994Z,79.40
2018-09-13T07:28:19.502Z,78.90
2018-09-13T07:30:48.095Z,79.00
2018-09-13T07:33:16.580Z,78.60
2018-09-13T07:35:45.191Z,78.90
2018-09-13T07:38:14.374Z,78.70
2018-09-13T07:40:43.054Z,78.00
2018-09-13T07:43:11.761Z,78.00
2018-09-13T07:45:40.307Z,77.40
2018-09-13T07:48:08.897Z,76.80
2018-09-13T07:50:37.413Z,76.80
2018-09-13T07:53:06.173Z,76.10
2018-09-13T07:55:35.029Z,75.20
2018-09-13T07:58:03.607Z,74.30
2018-09-13T08:00:32.125Z,73.90
2018-09-13T08:03:00.680Z,73.40
2018-09-13T08:05:29.243Z,72.60
2018-09-13T08:07:57.913Z,72.20
2018-09-13T08:10:26.778Z,71.90
2018-09-13T08:12:55.294Z,72.20
2018-09-13T08:15:24.340Z,71.50
2018-09-13T08:17:53.126Z,71.20
2018-09-13T08:20:22.055Z,70.60
2018-09-13T08:22:50.726Z,70.60
2018-09-13T08:25:19.643Z,69.50
2018-09-13T08:27:48.677Z,69.50
2018-09-13T08:30:17.249Z,70.20
2018-09-13T08:32:45.759Z,70.10
2018-09-13T08:35:14.458Z,70.10
2018-09-13T08:37:42.953Z,69.10
2018-09-13T08:40:11.476Z,68.70
2018-09-13T08:42:40.299Z,68.30
2018-09-13T08:45:08.876Z,67.90
2018-09-13T08:47:37.448Z,67.20
2018-09-13T08:50:06.038Z,66.30
2018-09-13T08:52:34.563Z,66.70
2018-09-13T08:55:03.178Z,65.90
2018-09-13T08:57:31.660Z,65.80
2018-09-13T09:00:00.181Z,64.60
2018-09-13T09:02:28.748Z,63.90
2018-09-13T09:04:57.285Z,63.90
2018-09-13T09:07:25.836Z,62.90
2018-09-13T09:09:54.382Z,62.50
2018-09-13T09:12:22.890Z,62.20
2018-09-13T09:14:51.405Z,61.10
2018-09-13T09:17:20.201Z,60.90
2018-09-13T09:19:48.728Z,60.90
2018-09-13T09:22:17.250Z,61.10
2018-09-13T09:24:45.812Z,60.60
2018-09-13T09:27:14.338Z,59.80
2018-09-13T09:29:43.219Z,59.50
2018-09-13T09:32:11.913Z,59.60
2018-09-13T09:34:40.469Z,59.50
2018-09-13T09:37:09.023Z,58.80
2018-09-13T09:39:37.557Z,58.30
2018-09-13T09:42:06.177Z,58.20
2018-09-13T09:44:34.690Z,57.80
2018-09-13T09:47:03.208Z,57.10
2018-09-13T09:49:31.770Z,56.60
2018-09-13T09:52:00.574Z,56.30
2018-09-13T09:54:28.983Z,55.80
2018-09-13T09:56:57.531Z,55.80
2018-09-13T09:59:26.032Z,55.50
2018-09-13T10:01:59.874Z,55.40
2018-09-13T10:04:28.512Z,55.30
2018-09-13T10:06:57.684Z,55.10
2018-09-13T10:09:26.202Z,55.20
2018-09-13T10:11:54.984Z,55.40
2018-09-13T10:14:23.767Z,55.30
2018-09-13T10:16:57.669Z,55.20
2018-09-13T10:19:31.639Z,54.80
2018-09-13T10:22:12.456Z,54.70
2018-09-13T10:24:46.200Z,54.80
2018-09-13T10:27:19.952Z,55.40
2018-09-13T10:29:53.868Z,54.80
2018-09-13T10:32:27.677Z,54.40
2018-09-13T10:35:01.423Z,54.30
2018-09-13T10:37:35.287Z,53.90
2018-09-13T10:40:09.308Z,53.70
2018-09-13T10:42:43.125Z,54.00
2018-09-13T10:45:17.115Z,53.30
2018-09-13T10:47:56.920Z,53.00
2018-09-13T10:50:27.447Z,53.10
2018-09-13T10:53:00.074Z,53.60
2018-09-13T10:55:29.101Z,53.30
2018-09-13T10:57:57.693Z,53.30
2018-09-13T11:00:26.346Z,53.10
2018-09-13T11:02:54.974Z,53.20
2018-09-13T11:05:23.577Z,53.40
2018-09-13T11:07:52.130Z,53.70
2018-09-13T11:10:21.037Z,53.50
2018-09-13T11:12:53.128Z,53.30
2018-09-13T11:15:33.928Z,52.80
2018-09-13T11:18:03.610Z,52.20
2018-09-13T11:20:32.815Z,51.70
2018-09-13T11:23:01.434Z,51.60
2018-09-13T11:25:30.047Z,51.10
2018-09-13T11:27:58.848Z,50.90
2018-09-13T11:30:27.735Z,51.00
2018-09-13T11:32:56.266Z,50.60
2018-09-13T11:35:24.787Z,49.70
2018-09-13T11:37:53.328Z,49.00
2018-09-13T11:40:21.902Z,49.00
2018-09-13T11:42:50.449Z,48.90
2018-09-13T11:45:19.059Z,48.40
2018-09-13T11:47:47.610Z,47.80
2018-09-13T11:50:17.182Z,46.80
2018-09-13T11:52:45.683Z,45.60
2018-09-13T11:55:14.252Z,44.90
2018-09-13T11:57:42.792Z,44.70
2018-09-13T12:00:11.335Z,45.00
2018-09-13T12:02:39.869Z,43.20
2018-09-13T12:05:08.440Z,41.20
2018-09-13T12:07:36.956Z,41.10
2018-09-13T12:10:06.353Z,40.70
2018-09-13T12:12:34.880Z,39.90
2018-09-13T12:15:03.688Z,39.30
2018-09-13T12:17:32.304Z,39.30
2018-09-13T12:20:00.789Z,39.70
2018-09-13T12:22:29.393Z,39.90
2018-09-13T12:24:57.880Z,40.50
2018-09-13T12:27:26.480Z,41.30
2018-09-13T12:29:55.021Z,42.10
2018-09-13T12:32:23.555Z,42.60
2018-09-13T12:34:52.083Z,43.30
2018-09-13T12:37:20.610Z,43.80
2018-09-13T12:39:49.332Z,44.60
2018-09-13T12:42:17.843Z,45.60
2018-09-13T12:44:46.347Z,45.90
2018-09-13T12:47:14.972Z,46.90
2018-09-13T12:49:43.593Z,46.90
2018-09-13T12:52:12.455Z,47.10
2018-09-13T12:54:41.063Z,47.50
2018-09-13T12:57:09.691Z,47.40
2018-09-13T12:59:38.201Z,47.60
2018-09-13T13:02:06.713Z,47.70
2018-09-13T13:04:35.239Z,47.40
2018-09-13T13:07:04.111Z,47.30
2018-09-13T13:09:32.640Z,47.40
2018-09-13T13:12:01.168Z,47.50
2018-09-13T13:14:29.752Z,47.70
2018-09-13T13:16:58.589Z,48.20
2018-09-13T13:19:27.056Z,49.00
2018-09-13T13:21:55.612Z,49.80
2018-09-13T13:24:24.166Z,50.30
2018-09-13T13:26:52.714Z,50.80
2018-09-13T13:29:21.312Z,51.10
2018-09-13T13:31:49.816Z,51.60
2018-09-13T13:34:18.364Z,52.20
2018-09-13T13:36:46.889Z,53.70
2018-09-13T13:39:15.557Z,54.60
2018-09-13T13:41:44.454Z,55.80
2018-09-13T13:44:13.351Z,56.80
2018-09-13T13:46:42.035Z,57.80
2018-09-13T13:49:10.604Z,59.10
2018-09-13T13:51:40.179Z,60.60
2018-09-13T13:54:08.721Z,62.10
2018-09-13T13:56:37.276Z,65.10
2018-09-13T13:59:05.832Z,69.60
2018-09-13T14:01:35.429Z,73.10
2018-09-13T14:04:03.962Z,75.60
2018-09-13T14:06:32.476Z,77.40
2018-09-13T14:09:01.044Z,80.50
2018-09-13T14:11:29.885Z,83.30
2018-09-13T14:13:58.702Z,84.20
2018-09-13T14:16:27.354Z,85.20
2018-09-13T14:18:56.009Z,86.20
2018-09-13T14:21:24.518Z,87.30
2018-09-13T14:23:53.184Z,87.90
2018-09-13T14:26:21.875Z,88.50
2018-09-13T14:28:50.924Z,88.70
2018-09-13T14:31:19.692Z,88.90
2018-09-13T14:33:48.696Z,89.30
2018-09-13T14:36:17.589Z,88.40
2018-09-13T14:38:46.699Z,88.00
2018-09-13T14:41:15.434Z,88.10
2018-09-13T14:43:44.795Z,88.60
2018-09-13T14:46:13.685Z,89.30
2018-09-13T14:48:42.187Z,89.00
2018-09-13T14:51:11.130Z,89.30
2018-09-13T14:53:39.697Z,89.80
2018-09-13T14:56:09.198Z,89.10
2018-09-13T14:58:37.946Z,88.70
2018-09-13T15:01:06.844Z,88.50
2018-09-13T15:03:35.457Z,88.00
2018-09-13T15:06:04.017Z,87.90
2018-09-13T15:08:32.525Z,87.80
2018-09-13T15:11:01.099Z,87.50
2018-09-13T15:13:29.682Z,87.40
2018-09-13T15:15:58.291Z,86.80
2018-09-13T15:18:26.821Z,86.50
2018-09-13T15:20:55.324Z,86.00
2018-09-13T15:23:23.949Z,85.60
2018-09-13T15:25:52.490Z,85.20
2018-09-13T15:28:21.017Z,85.10
2018-09-13T15:30:49.710Z,85.30
2018-09-13T15:33:18.203Z,85.00
2018-09-13T15:35:46.748Z,85.40
2018-09-13T15:38:15.253Z,85.30
2018-09-13T15:40:43.825Z,85.60
2018-09-13T15:43:12.368Z,85.80
2018-09-13T15:45:40.896Z,85.90
2018-09-13T15:48:09.473Z,86.10
2018-09-13T15:50:37.993Z,86.30
2018-09-13T15:53:06.658Z,86.60
2018-09-13T15:55:35.206Z,86.20
2018-09-13T15:58:03.768Z,86.20
2018-09-13T16:00:32.551Z,86.00
2018-09-13T16:03:01.071Z,85.90
2018-09-13T16:05:30.487Z,85.80
2018-09-13T16:07:59.044Z,86.10
2018-09-13T16:10:27.587Z,86.00
2018-09-13T16:12:56.171Z,86.10
2018-09-13T16:15:24.701Z,86.20
2018-09-13T16:17:53.263Z,86.70
2018-09-13T16:20:21.788Z,86.60
2018-09-13T16:22:50.333Z,86.90
2018-09-13T16:25:18.916Z,87.30
2018-09-13T16:27:47.537Z,87.40
2018-09-13T16:30:16.060Z,87.40
2018-09-13T16:32:44.637Z,88.00
2018-09-13T16:35:13.289Z,87.90
2018-09-13T16:37:47.100Z,88.20
2018-09-13T16:40:20.851Z,87.70
2018-09-13T16:42:54.900Z,87.70
2018-09-13T16:45:30.872Z,88.20
2018-09-13T16:48:01.439Z,88.60
2018-09-13T16:50:30.065Z,88.00
2018-09-13T16:52:58.671Z,87.80
2018-09-13T16:55:27.286Z,87.60
2018-09-13T16:57:55.816Z,87.40
2018-09-13T17:00:25.374Z,87.10
2018-09-13T17:02:54.220Z,88.10
2018-09-13T17:05:22.975Z,87.30
2018-09-13T17:07:51.509Z,87.10
2018-09-13T17:10:20.037Z,87.00
2018-09-13T17:12:48.601Z,86.90
2018-09-13T17:15:17.901Z,87.20
2018-09-13T17:17:46.448Z,87.00
2018-09-13T17:20:15.057Z,87.10
2018-09-13T17:22:43.754Z,87.40
2018-09-13T17:25:12.319Z,87.70
2018-09-13T17:27:40.896Z,88.20
2018-09-13T17:30:09.766Z,89.30
2018-09-13T17:32:38.278Z,89.50
2018-09-13T17:35:06.896Z,90.00
2018-09-13T17:37:35.435Z,90.10
2018-09-13T17:40:04.025Z,90.20
2018-09-13T17:42:32.643Z,90.30
2018-09-13T17:45:01.197Z,90.40
2018-09-13T17:47:30.452Z,90.80
2018-09-13T17:49:59.676Z,90.90
2018-09-13T17:52:28.527Z,91.10
2018-09-13T17:54:57.056Z,91.00
2018-09-13T17:57:25.603Z,91.30
2018-09-13T17:59:54.145Z,91.40
2018-09-13T18:02:22.701Z,91.30
2018-09-13T18:04:51.269Z,91.30
2018-09-13T18:07:19.813Z,91.60
2018-09-13T18:09:48.382Z,91.40
2018-09-13T18:12:16.928Z,91.50
2018-09-13T18:14:45.559Z,91.40
2018-09-13T18:17:14.078Z,91.40
2018-09-13T18:19:42.664Z,91.40
2018-09-13T18:22:11.184Z,91.40
2018-09-13T18:24:39.746Z,91.40
2018-09-13T18:27:08.302Z,91.50
2018-09-13T18:29:36.846Z,91.50
2018-09-13T18:32:05.426Z,91.70
2018-09-13T18:34:34.003Z,91.60
2018-09-13T18:37:02.600Z,91.60
2018-09-13T18:39:31.858Z,91.60
2018-09-13T18:42:00.385Z,91.50
2018-09-13T18:44:28.937Z,91.70
2018-09-13T18:46:57.448Z,91.80
2018-09-13T18:49:26.152Z,91.80
2018-09-13T18:51:54.756Z,91.70
2018-09-13T18:54:23.413Z,91.70
2018-09-13T18:56:51.869Z,91.60
2018-09-13T18:59:20.407Z,91.60
2018-09-13T19:01:49.249Z,91.60
2018-09-13T19:04:17.816Z,91.60
2018-09-13T19:06:46.353Z,92.00
2018-09-13T19:09:14.883Z,91.90
2018-09-13T19:11:43.635Z,91.90
2018-09-13T19:14:12.164Z,91.90
2018-09-13T19:16:40.711Z,92.00
2018-09-13T19:19:09.267Z,92.00
2018-09-13T19:21:37.811Z,92.10
2018-09-13T19:24:06.610Z,92.00
2018-09-13T19:26:35.745Z,92.20
2018-09-13T19:29:04.289Z,91.90
2018-09-13T19:31:33.790Z,91.90
2018-09-13T19:34:02.353Z,92.10
2018-09-13T19:36:31.223Z,92.00
2018-09-13T19:38:59.748Z,92.10
2018-09-13T19:41:29.373Z,92.20
2018-09-13T19:43:57.890Z,92.30
2018-09-13T19:46:26.565Z,92.40
2018-09-13T19:48:55.160Z,92.30
2018-09-13T19:51:23.907Z,92.20
2018-09-13T19:53:52.422Z,92.20
2018-09-13T19:56:21.567Z,92.10
2018-09-13T19:58:50.109Z,92.20
2018-09-13T20:01:18.901Z,92.10
2018-09-13T20:03:47.524Z,92.20
2018-09-13T20:06:16.156Z,92.20
2018-09-13T20:08:44.728Z,92.20
2018-09-13T20:11:13.403Z,92.30
2018-09-13T20:13:41.977Z,92.10
2018-09-13T20:16:10.611Z,92.20
2018-09-13T20:18:39.516Z,92.20
2018-09-13T20:21:08.164Z,92.30
2018-09-13T20:23:36.713Z,92.30
2018-09-13T20:26:05.322Z,92.30
2018-09-13T20:28:34.503Z,92.20
2018-09-13T20:31:03.095Z,92.20
2018-09-13T20:33:31.852Z,92.20
2018-09-13T20:36:00.520Z,92.20
2018-09-13T20:38:29.043Z,92.10
2018-09-13T20:40:57.561Z,92.10
2018-09-13T20:43:26.171Z,92.10
2018-09-13T20:45:54.757Z,92.20
2018-09-13T20:48:23.295Z,92.20
2018-09-13T20:50:51.829Z,92.30
2018-09-13T20:53:20.490Z,92.50
2018-09-13T20:55:49.336Z,92.50
2018-09-13T20:58:17.964Z,92.60
2018-09-13T21:00:46.597Z,92.40
2018-09-13T21:03:15.366Z,92.50
2018-09-13T21:05:43.884Z,92.40
2018-09-13T21:08:12.471Z,92.40
2018-09-13T21:10:42.481Z,92.40
2018-09-13T21:13:11.024Z,92.40
2018-09-13T21:15:39.773Z,92.60
2018-09-13T21:18:08.312Z,92.40
2018-09-13T21:20:36.868Z,92.50
2018-09-13T21:23:06.315Z,92.50
2018-09-13T21:25:35.608Z,92.50
2018-09-13T21:28:04.208Z,92.30
2018-09-13T21:30:33.745Z,92.20
2018-09-13T21:33:03.630Z,92.10
2018-09-13T21:35:32.211Z,92.00
2018-09-13T21:38:00.777Z,91.90
2018-09-13T21:40:29.333Z,91.90
2018-09-13T21:42:58.297Z,92.10
2018-09-13T21:45:26.888Z,91.80
2018-09-13T21:47:55.424Z,91.80
2018-09-13T21:50:23.946Z,91.80
2018-09-13T21:52:52.531Z,91.80
2018-09-13T21:55:21.343Z,91.90
2018-09-13T21:57:49.920Z,91.90
2018-09-13T22:00:18.570Z,91.90
2018-09-13T22:02:47.120Z,92.00
2018-09-13T22:05:15.768Z,92.00
2018-09-13T22:10:35.019Z,92.20
2018-09-13T22:13:03.569Z,92.30
2018-09-13T22:15:32.124Z,92.40
2018-09-13T22:18:00.672Z,92.40
2018-09-13T22:20:29.218Z,92.50
2018-09-13T22:22:57.795Z,92.40
2018-09-13T22:25:26.332Z,92.30
2018-09-13T22:27:54.881Z,92.20
2018-09-13T22:30:23.558Z,92.30
2018-09-13T22:32:52.106Z,92.30
2018-09-13T22:35:20.618Z,92.40
2018-09-13T22:37:49.139Z,92.40
2018-09-13T22:40:17.688Z,92.50
2018-09-13T22:42:46.216Z,92.40
2018-09-13T22:45:14.755Z,92.30
2018-09-13T22:47:43.293Z,92.30
2018-09-13T22:50:11.916Z,92.30
2018-09-13T22:52:40.423Z,92.30
2018-09-13T22:55:09.471Z,92.20
2018-09-13T22:57:38.041Z,92.20
2018-09-13T23:00:06.850Z,92.30
2018-09-13T23:02:40.766Z,92.30
2018-09-13T23:05:09.342Z,92.40
2018-09-13T23:07:37.857Z,92.50
2018-09-13T23:10:06.432Z,92.60
2018-09-13T23:12:36.111Z,92.70
2018-09-13T23:15:04.725Z,92.80
2018-09-13T23:17:33.324Z,92.80
2018-09-13T23:20:01.828Z,92.90
2018-09-13T23:22:30.337Z,92.90
2018-09-13T23:24:59.035Z,92.90
2018-09-13T23:27:27.560Z,92.90
2018-09-13T23:29:56.118Z,92.90
2018-09-13T23:32:24.876Z,92.80
2018-09-13T23:34:53.432Z,92.70
2018-09-13T23:37:22.342Z,92.60
2018-09-13T23:39:51.019Z,92.60
2018-09-13T23:42:19.435Z,92.40
2018-09-13T23:44:47.959Z,92.40
2018-09-13T23:47:16.486Z,92.30
2018-09-13T23:49:45.016Z,92.70
2018-09-13T23:52:13.590Z,92.60
2018-09-13T23:54:42.291Z,92.80
2018-09-13T23:57:10.846Z,92.80
2018-09-13T23:59:39.411Z,92.90
